Time;durP1;ratioP1;P1;durP2;ratioP2;P2;SDS_P1;SDS_P2;PMS_P1;PMS_P2;Temp;Humidity;BMP_temperature;BMP_pressure;BME280_temperature;BME280_humidity;BME280_pressure;Samples;Min_cycle;Max_cycle;Signal;HPM_P1;HPM_P2
2021/11/02 00:00:58;;;;;;;133.32;42.73;;;;;;;9.17;100.00;100980.20;1721545;83;21936;-89
2021/11/02 00:03:24;;;;;;;126.65;41.80;;;;;;;9.16;100.00;100967.82;1721244;83;20966;-88
2021/11/02 00:05:50;;;;;;;123.28;43.40;;;;;;;9.21;100.00;100971.95;1700305;84;21741;-88
2021/11/02 00:08:16;;;;;;;122.17;42.00;;;;;;;9.20;100.00;100968.42;1703915;84;20877;-89
2021/11/02 00:10:43;;;;;;;122.58;42.65;;;;;;;9.17;100.00;100959.50;1703872;84;21182;-88
2021/11/02 00:13:09;;;;;;;124.78;41.28;;;;;;;9.23;100.00;100967.13;1703641;84;22416;-88
2021/11/02 00:15:40;;;;;;;114.95;40.65;;;;;;;9.24;100.00;100964.75;1703540;84;21036;-89
2021/11/02 00:18:07;;;;;;;134.97;43.35;;;;;;;9.25;100.00;100958.30;1704092;84;21019;-88
2021/11/02 00:20:34;;;;;;;128.27;44.13;;;;;;;9.26;100.00;100955.89;1703704;84;21476;-87
2021/11/02 00:23:03;;;;;;;124.62;42.90;;;;;;;9.27;100.00;100957.55;1703721;84;21079;-87
2021/11/02 00:25:31;;;;;;;131.15;42.27;;;;;;;9.27;100.00;100948.13;1704035;84;21612;-88
2021/11/02 00:28:06;;;;;;;134.15;44.55;;;;;;;9.28;100.00;100950.56;1704980;83;20996;-88
2021/11/02 00:30:32;;;;;;;116.77;41.63;;;;;;;9.28;100.00;100937.65;1703648;84;21139;-87
2021/11/02 00:32:59;;;;;;;120.20;41.80;;;;;;;9.30;100.00;100935.55;1703835;84;21634;-88
2021/11/02 00:35:27;;;;;;;116.22;39.75;;;;;;;9.31;100.00;100940.66;1703360;84;21613;-86
2021/11/02 00:37:53;;;;;;;124.87;41.33;;;;;;;9.32;100.00;100930.21;1703844;83;21516;-89
2021/11/02 00:40:22;;;;;;;117.57;40.58;;;;;;;9.35;100.00;100927.54;1703573;84;21012;-86
2021/11/02 00:45:28;;;;;;;120.08;40.78;;;;;;;9.40;100.00;100922.78;1703240;84;21492;-88
2021/11/02 00:47:51;;;;;;;122.42;40.92;;;;;;;9.42;100.00;100932.25;1700219;84;21546;-87
2021/11/02 00:50:15;;;;;;;117.70;40.15;;;;;;;9.45;100.00;100929.07;1703220;84;21067;-88
2021/11/02 00:52:41;;;;;;;129.55;41.73;;;;;;;9.47;100.00;100921.58;1703801;83;21059;-86
2021/11/02 00:55:08;;;;;;;125.02;41.60;;;;;;;9.48;100.00;100915.13;1704051;84;20924;-87
2021/11/02 00:57:35;;;;;;;124.07;41.23;;;;;;;9.50;100.00;100909.48;1703823;84;21678;-87
2021/11/02 01:00:04;;;;;;;116.40;39.27;;;;;;;9.52;100.00;100898.77;1704188;84;21020;-86
2021/11/02 01:02:30;;;;;;;123.15;40.58;;;;;;;9.55;100.00;100898.81;1704096;84;21106;-86
2021/11/02 01:04:56;;;;;;;124.12;41.83;;;;;;;9.58;100.00;100893.48;1704943;84;20894;-87
2021/11/02 01:07:22;;;;;;;122.78;42.08;;;;;;;9.61;100.00;100888.95;1705980;84;21637;-87
2021/11/02 01:09:48;;;;;;;131.37;43.45;;;;;;;9.64;100.00;100893.84;1706030;84;21012;-87
2021/11/02 01:12:15;;;;;;;125.12;42.27;;;;;;;9.66;100.00;100885.81;1705710;84;21056;-89
2021/11/02 01:14:42;;;;;;;121.72;39.88;;;;;;;9.69;100.00;100887.20;1705795;84;21176;-87
2021/11/02 01:17:08;;;;;;;132.10;42.43;;;;;;;9.70;100.00;100880.74;1706094;84;21059;-88
2021/11/02 01:19:34;;;;;;;132.40;42.78;;;;;;;9.73;100.00;100888.32;1706055;84;20974;-88
2021/11/02 01:22:00;;;;;;;132.85;42.50;;;;;;;9.75;100.00;100882.98;1706223;84;21481;-88
2021/11/02 01:24:26;;;;;;;132.32;43.42;;;;;;;9.76;100.00;100877.91;1706274;84;21222;-88
2021/11/02 01:26:53;;;;;;;119.80;40.55;;;;;;;9.79;100.00;100872.53;1705825;83;21093;-89
2021/11/02 01:29:19;;;;;;;119.47;40.52;;;;;;;9.81;100.00;100876.33;1697880;84;20998;-89
2021/11/02 01:31:46;;;;;;;126.12;42.58;;;;;;;9.82;100.00;100868.53;1670261;84;21450;-88
2021/11/02 01:34:12;;;;;;;126.50;40.58;;;;;;;9.84;100.00;100865.07;1698109;84;21566;-89
2021/11/02 01:36:40;;;;;;;110.05;38.92;;;;;;;9.86;100.00;100864.30;1698595;84;21077;-90
2021/11/02 01:39:07;;;;;;;125.67;41.25;;;;;;;9.88;100.00;100865.69;1698160;84;21890;-90
2021/11/02 01:41:37;;;;;;;123.85;39.70;;;;;;;9.89;100.00;100853.84;1697860;84;20990;-89
2021/11/02 01:44:05;;;;;;;122.25;41.35;;;;;;;9.91;100.00;100858.45;1670493;84;21050;-89
2021/11/02 01:46:38;;;;;;;135.63;42.38;;;;;;;9.90;100.00;100851.42;1698059;84;21080;-90
2021/11/02 01:49:06;;;;;;;;;;;;;;;9.92;100.00;100854.69;1700744;84;21988;-89
2021/11/02 01:51:33;;;;;;;131.03;43.95;;;;;;;9.93;100.00;100850.11;1698397;84;21008;-90
2021/11/02 01:54:00;;;;;;;135.75;44.33;;;;;;;9.94;100.00;100847.70;1698222;84;21049;-91
2021/11/02 01:56:26;;;;;;;131.80;43.70;;;;;;;9.94;100.00;100845.84;1698319;84;21050;-89
2021/11/02 01:58:54;;;;;;;118.53;41.95;;;;;;;9.94;100.00;100843.66;1698135;84;21029;-88
2021/11/02 02:01:51;;;;;;;130.78;42.70;;;;;;;9.95;100.00;100840.73;1697939;84;21022;-90
2021/11/02 02:05:00;;;;;;;124.72;41.18;;;;;;;9.98;100.00;100846.16;1695274;84;21735;-87
2021/11/02 02:08:21;;;;;;;117.00;38.28;;;;;;;9.99;100.00;100824.88;1694000;84;21089;-89
2021/11/02 02:11:10;;;;;;;123.58;39.45;;;;;;;9.98;100.00;100815.19;1698510;84;21058;-91
2021/11/02 02:13:47;;;;;;;125.40;39.15;;;;;;;9.99;100.00;100818.16;1697798;84;21566;-88
2021/11/02 02:16:24;;;;;;;131.25;42.13;;;;;;;9.99;100.00;100815.46;1692486;84;21168;-90
2021/11/02 02:19:27;;;;;;;120.22;40.45;;;;;;;9.99;100.00;100806.05;1696912;84;21569;-91
2021/11/02 02:22:10;;;;;;;122.65;38.08;;;;;;;9.99;100.00;100808.20;1698128;84;21062;-89
2021/11/02 02:24:51;;;;;;;116.65;39.35;;;;;;;9.99;100.00;100812.23;1694639;84;28299;-89
2021/11/02 02:27:25;;;;;;;116.97;39.05;;;;;;;9.99;100.00;100804.70;1610434;87;21141;-90
2021/11/02 02:29:52;;;;;;;112.08;36.85;;;;;;;9.99;100.00;100800.12;1605842;89;21050;-87
2021/11/02 02:32:22;;;;;;;112.28;38.65;;;;;;;9.99;100.00;100792.04;1605700;89;21148;-87
2021/11/02 02:34:53;;;;;;;133.70;40.45;;;;;;;10.00;100.00;100788.30;1582609;90;21594;-90
2021/11/02 02:37:22;;;;;;;125.33;40.33;;;;;;;10.01;100.00;100798.00;1583191;90;21046;-88
2021/11/02 02:39:49;;;;;;;117.10;39.13;;;;;;;10.03;100.00;100795.58;1582924;90;21128;-88
2021/11/02 02:42:18;;;;;;;119.28;39.00;;;;;;;10.05;100.00;100792.92;1582775;90;21634;-87
2021/11/02 02:44:47;;;;;;;125.42;39.15;;;;;;;10.06;100.00;100791.03;1562691;90;21208;-90
2021/11/02 02:47:16;;;;;;;117.15;39.27;;;;;;;10.07;100.00;100785.41;1582723;90;21685;-88
2021/11/02 02:49:44;;;;;;;113.88;38.83;;;;;;;10.09;100.00;100777.06;1582901;90;21141;-87
2021/11/02 02:52:13;;;;;;;123.13;39.40;;;;;;;10.07;100.00;100782.72;1582995;90;21113;-88
2021/11/02 02:54:44;;;;;;;113.28;38.25;;;;;;;10.09;100.00;100785.98;1582701;90;20994;-89
2021/11/02 02:57:12;;;;;;;116.30;37.83;;;;;;;10.10;100.00;100786.25;1583040;90;21281;-87
2021/11/02 02:59:40;;;;;;;116.33;40.28;;;;;;;10.12;100.00;100786.02;1582613;89;21564;-89
2021/11/02 03:02:11;;;;;;;127.80;40.50;;;;;;;10.14;100.00;100784.67;1582888;90;21174;-87
2021/11/02 03:04:36;;;;;;;114.50;38.65;;;;;;;10.17;100.00;100780.67;1603369;88;21111;-89
2021/11/02 03:07:03;;;;;;;117.00;38.58;;;;;;;10.18;100.00;100780.43;1622309;88;21636;-86
2021/11/02 03:09:30;;;;;;;119.85;43.40;;;;;;;10.20;100.00;100778.28;1622381;88;21229;-87
2021/11/02 03:11:58;;;;;;;121.62;42.55;;;;;;;10.23;100.00;100774.27;1622381;88;21075;-86
2021/11/02 03:17:31;;;;;;;126.92;42.73;;;;;;;10.27;100.00;100753.89;1622435;88;21024;-87
2021/11/02 03:20:42;;;;;;;118.35;41.15;;;;;;;10.27;100.00;100749.85;1622508;88;21164;-87
2021/11/02 03:56:12;;;;;;;102.58;36.17;;;;;;;10.50;100.00;100703.44;1730737;82;21514;-88
2021/11/02 03:58:35;;;;;;;105.70;35.95;;;;;;;10.58;100.00;100704.32;1726297;82;20969;-89
2021/11/02 04:01:26;;;;;;;104.97;37.55;;;;;;;10.58;100.00;100693.00;1726011;82;21505;-89
2021/11/02 05:09:14;;;;;;;99.52;37.98;;;;;;;11.02;100.00;100722.98;1513559;93;21701;-87
2021/11/02 05:58:26;;;;;;;63.83;27.70;;;;;;;11.62;100.00;100748.70;1691084;84;21130;-90
2021/11/02 06:03:31;;;;;;;61.40;25.70;;;;;;;11.66;100.00;100744.94;1699557;83;21198;-90
2021/11/02 06:05:55;;;;;;;61.28;26.80;;;;;;;11.70;100.00;100741.44;1692369;84;21110;-89
2021/11/02 06:08:54;;;;;;;64.22;26.60;;;;;;;11.75;100.00;100736.61;1696823;83;21064;-89
2021/11/02 06:30:30;;;;;;;70.30;28.60;;;;;;;11.90;100.00;100722.38;1728896;81;21021;-88
2021/11/02 06:35:35;;;;;;;69.95;27.60;;;;;;;11.93;100.00;100717.80;1640322;87;21023;-87
2021/11/02 06:38:26;;;;;;;66.02;28.02;;;;;;;11.93;100.00;100711.84;1640028;86;21181;-87
2021/11/02 06:54:18;;;;;;;57.88;25.70;;;;;;;12.12;100.00;100706.78;1607363;89;21073;-89
2021/11/02 06:57:12;;;;;;;59.35;26.10;;;;;;;12.14;100.00;100704.61;1498902;95;21620;-87
2021/11/02 07:00:03;;;;;;;58.63;26.02;;;;;;;12.13;100.00;100702.99;1496033;95;21088;-88
2021/11/02 07:22:42;;;;;;;51.25;21.07;;;;;;;11.88;100.00;100684.02;1474291;95;21124;-88
2021/11/02 07:28:00;;;;;;;49.40;21.57;;;;;;;11.83;100.00;100674.80;1470115;96;21190;-87
2021/11/02 08:48:28;;;;;;;34.78;14.58;;;;;;;11.55;100.00;100599.13;1507619;95;21126;-91
2021/11/02 08:50:59;;;;;;;38.23;13.55;;;;;;;11.59;100.00;100604.83;1472121;95;21454;-90
2021/11/02 08:53:26;;;;;;;34.90;14.43;;;;;;;11.66;100.00;100612.67;1474988;96;21686;-93
2021/11/02 08:55:52;;;;;;;34.90;13.78;;;;;;;11.71;100.00;100629.69;1477922;95;21615;-93
2021/11/02 08:58:19;;;;;;;31.55;13.90;;;;;;;11.78;100.00;100630.78;1465996;97;21081;-93
2021/11/02 09:00:45;;;;;;;35.40;13.58;;;;;;;11.78;100.00;100626.73;1469380;97;21045;-92
2021/11/02 09:03:25;;;;;;;45.23;14.07;;;;;;;11.75;100.00;100626.72;1508671;93;21132;-93
2021/11/02 09:05:58;;;;;;;32.38;13.60;;;;;;;11.74;100.00;100625.65;1537108;93;21072;-93
2021/11/02 09:08:28;;;;;;;35.78;13.60;;;;;;;11.79;100.00;100626.48;1523435;93;21137;-93
2021/11/02 09:10:56;;;;;;;30.77;12.47;;;;;;;11.79;100.00;100621.59;1541614;93;21700;-92
2021/11/02 09:13:24;;;;;;;35.85;13.38;;;;;;;11.81;100.00;100625.65;1541212;93;21097;-92
2021/11/02 09:15:54;;;;;;;29.50;12.28;;;;;;;11.82;100.00;100625.10;1541537;93;21174;-92
2021/11/02 09:18:20;;;;;;;33.50;13.83;;;;;;;11.78;100.00;100624.83;1538519;93;21056;-95
2021/11/02 09:20:46;;;;;;;34.10;14.73;;;;;;;11.78;100.00;100615.92;1573087;91;21129;-92
2021/11/02 09:23:13;;;;;;;41.05;16.93;;;;;;;11.81;100.00;100614.05;1572937;91;21117;-92
2021/11/02 09:25:51;;;;;;;33.15;14.30;;;;;;;11.84;100.00;100608.11;1572869;90;21148;-92
2021/11/02 09:28:18;;;;;;;35.40;14.25;;;;;;;11.81;100.00;100604.05;1573051;91;21098;-93
2021/11/02 09:30:45;;;;;;;36.75;16.02;;;;;;;11.82;100.00;100602.16;1572987;88;21038;-93
2021/11/02 09:33:12;;;;;;;35.70;16.23;;;;;;;11.87;100.00;100606.25;1629069;88;21751;-93
2021/11/02 09:35:38;;;;;;;30.08;14.45;;;;;;;11.93;100.00;100603.02;1629276;88;21110;-95
2021/11/02 09:38:34;;;;;;;34.73;14.45;;;;;;;11.97;100.00;100594.64;1600699;84;21109;-96
2021/11/02 09:41:14;;;;;;;26.10;12.75;;;;;;;12.03;100.00;100596.30;1580614;90;21888;-93
2021/11/02 09:44:14;;;;;;;31.12;14.23;;;;;;;12.10;100.00;100589.27;1580451;90;21114;-94
2021/11/02 09:47:09;;;;;;;28.87;13.03;;;;;;;12.18;100.00;100593.59;1514549;94;21057;-94
2021/11/02 09:50:15;;;;;;;32.60;13.30;;;;;;;12.31;100.00;100584.12;1515671;93;21173;-95
2021/11/02 09:53:08;;;;;;;31.42;13.05;;;;;;;12.25;100.00;100583.31;1530864;93;21105;-96
2021/11/02 09:55:53;;;;;;;28.05;13.00;;;;;;;12.27;100.00;100586.55;1517371;94;21180;-96
2021/11/02 09:58:57;;;;;;;39.40;15.03;;;;;;;12.28;100.00;100584.11;1467319;96;21562;-95
2021/11/02 10:01:35;;;;;;;35.30;14.47;;;;;;;12.31;100.00;100584.66;1453905;98;21187;-94
2021/11/02 10:04:51;;;;;;;25.23;11.08;;;;;;;12.26;100.00;100578.70;1457749;96;21126;-93
2021/11/02 10:07:42;;;;;;;24.95;11.20;;;;;;;12.27;100.00;100579.00;1454940;98;21224;-95
2021/11/02 10:10:25;;;;;;;22.20;10.95;;;;;;;12.23;100.00;100571.95;1438794;99;21408;-95
2021/11/02 10:13:03;;;;;;;19.80;10.23;;;;;;;12.22;100.00;100570.89;1447399;99;21543;-93
2021/11/02 10:16:08;;;;;;;21.07;9.73;;;;;;;12.22;100.00;100574.94;1443779;99;21620;-94
2021/11/02 10:19:14;;;;;;;18.50;9.15;;;;;;;12.25;100.00;100567.09;1447967;99;21141;-92
2021/11/02 10:22:06;;;;;;;20.05;9.63;;;;;;;12.31;100.00;100569.80;1482861;95;21191;-94
2021/11/02 10:25:01;;;;;;;20.77;9.40;;;;;;;12.31;100.00;100568.45;1522674;93;21284;-94
2021/11/02 10:27:57;;;;;;;19.82;9.20;;;;;;;12.33;100.00;100569.80;1523635;94;21228;-94
2021/11/02 10:30:55;;;;;;;22.60;9.20;;;;;;;12.35;100.00;100565.46;1523735;94;21173;-95
2021/11/02 10:33:36;;;;;;;19.35;9.18;;;;;;;12.37;100.00;100567.36;1530103;92;21545;-95
2021/11/02 10:36:26;;;;;;;23.47;8.65;;;;;;;12.33;100.00;100567.65;1568124;90;21238;-93
2021/11/02 10:39:02;;;;;;;23.62;9.73;;;;;;;12.43;100.00;100572.48;1570625;89;21201;-93
2021/11/02 10:41:37;;;;;;;22.73;9.33;;;;;;;12.49;100.00;100565.98;1578275;90;21059;-96
2021/11/02 10:44:32;;;;;;;23.52;9.05;;;;;;;12.52;100.00;100564.62;1556529;92;21182;-96
2021/11/02 10:47:03;;;;;;;18.73;8.25;;;;;;;12.54;100.00;100563.02;1553080;92;21117;-96
2021/11/02 10:49:43;;;;;;;18.98;8.88;;;;;;;12.54;100.00;100558.41;1541483;92;21069;-96
2021/11/02 10:52:13;;;;;;;21.05;9.13;;;;;;;12.54;100.00;100555.71;1532527;92;21339;-96
2021/11/02 10:55:18;;;;;;;23.65;9.23;;;;;;;12.54;100.00;100550.30;1566132;90;21630;-95
2021/11/02 10:58:22;;;;;;;20.00;8.80;;;;;;;12.52;100.00;100542.20;1566934;90;21115;-95
2021/11/02 11:00:51;;;;;;;19.67;9.33;;;;;;;12.52;100.00;100544.36;1569665;90;21755;-93
2021/11/02 11:03:18;;;;;;;18.48;9.50;;;;;;;12.53;100.00;100541.10;1569016;90;21167;-95
2021/11/02 11:05:49;;;;;;;19.15;9.10;;;;;;;12.53;100.00;100543.80;1547754;91;21152;-94
2021/11/02 11:08:16;;;;;;;23.07;9.33;;;;;;;12.58;100.00;100540.55;1541860;91;21124;-93
2021/11/02 11:10:49;;;;;;;17.12;8.58;;;;;;;12.61;100.00;100544.05;1546442;91;21116;-93
2021/11/02 11:13:21;;;;;;;18.35;8.75;;;;;;;12.62;100.00;100540.84;1537139;93;21198;-94
2021/11/02 11:16:22;;;;;;;;;;;;;;;;;;;;;
2021/11/02 11:19:09;;;;;;;21.60;9.63;;;;;;;12.60;100.00;100544.34;1551568;91;21089;-96
2021/11/02 11:21:36;;;;;;;23.50;10.63;;;;;;;12.58;100.00;100535.14;1567368;91;21181;-92
2021/11/02 11:24:11;;;;;;;23.92;10.55;;;;;;;12.61;100.00;100533.24;1557291;91;21157;-94
2021/11/02 11:26:50;;;;;;;29.45;12.78;;;;;;;12.62;100.00;100533.53;1547204;92;21076;-95
2021/11/02 11:29:29;;;;;;;27.30;12.00;;;;;;;12.62;100.00;100532.18;1517163;94;21118;-94
2021/11/02 11:31:58;;;;;;;26.73;12.73;;;;;;;12.62;100.00;100531.38;1551672;92;21391;-95
2021/11/02 11:34:38;;;;;;;30.23;13.15;;;;;;;12.62;100.00;100528.67;1485883;94;21553;-96
2021/11/02 11:37:06;;;;;;;27.93;12.95;;;;;;;12.61;100.00;100523.78;1484118;96;21110;-96
2021/11/02 11:39:36;;;;;;;30.82;13.40;;;;;;;12.62;100.00;100525.42;1480101;96;21073;-95
2021/11/02 11:42:03;;;;;;;27.45;12.88;;;;;;;12.59;100.00;100525.97;1479125;97;21126;-96
2021/11/02 11:44:31;;;;;;;31.87;15.18;;;;;;;12.60;100.00;100522.17;1429108;100;21520;-96
2021/11/02 11:47:12;;;;;;;35.00;15.45;;;;;;;12.60;100.00;100522.17;1431113;99;21652;-95
2021/11/02 11:49:45;;;;;;;35.00;15.55;;;;;;;12.62;100.00;100517.86;1486475;96;21657;-95
2021/11/02 11:52:10;;;;;;;33.70;15.95;;;;;;;12.64;100.00;100523.78;1463004;98;21061;-96
2021/11/02 11:54:56;;;;;;;31.87;14.20;;;;;;;12.71;100.00;100518.91;1488560;96;21208;-95
2021/11/02 11:57:31;;;;;;;31.68;15.23;;;;;;;12.75;100.00;100513.20;1441483;97;21258;-96
2021/11/02 12:00:13;;;;;;;34.23;14.73;;;;;;;12.87;100.00;100514.23;1494431;94;21140;-96
2021/11/02 12:02:56;;;;;;;38.05;15.95;;;;;;;12.92;100.00;100510.17;1526822;94;21068;-96
2021/11/02 12:05:23;;;;;;;38.13;16.90;;;;;;;13.00;100.00;100510.95;1472127;97;21088;-95
2021/11/02 12:08:35;;;;;;;42.15;18.30;;;;;;;13.03;100.00;100511.74;1495898;96;21071;-95
2021/11/02 12:11:04;;;;;;;42.75;18.07;;;;;;;13.05;100.00;100508.20;1472989;97;21276;-95
2021/11/02 12:13:35;;;;;;;45.08;19.32;;;;;;;13.09;100.00;100507.12;1496054;96;21123;-93
2021/11/02 12:16:31;;;;;;;47.50;20.20;;;;;;;13.13;100.00;100513.58;1485482;95;21536;-96
2021/11/02 12:19:19;;;;;;;51.13;22.67;;;;;;;13.12;100.00;100508.72;1504792;88;21137;-94
2021/11/02 12:21:53;;;;;;;50.95;20.90;;;;;;;13.13;100.00;100502.75;1546193;93;21315;-96
2021/11/02 12:24:28;;;;;;;69.32;27.45;;;;;;;13.17;100.00;100503.80;1399587;102;21142;-96
2021/11/02 12:26:54;;;;;;;53.78;22.93;;;;;;;13.17;100.00;100505.95;1351554;103;21183;-96
2021/11/02 12:29:27;;;;;;;51.80;21.50;;;;;;;13.15;100.00;100502.75;1369168;104;21298;-96
2021/11/02 12:32:02;;;;;;;47.67;21.55;;;;;;;13.14;100.00;100507.87;1369669;104;21166;-96
2021/11/02 12:34:42;;;;;;;59.25;24.63;;;;;;;13.12;100.00;100512.77;1369289;104;21222;-96
2021/11/02 12:37:11;;;;;;;65.22;26.27;;;;;;;13.12;100.00;100507.36;1336128;107;21219;-96
2021/11/02 12:39:38;;;;;;;91.32;40.58;;;;;;;13.15;100.00;100511.41;1320921;108;21233;-95
2021/11/02 12:42:05;;;;;;;64.17;26.60;;;;;;;13.17;100.00;100506.52;1321418;108;21195;-96
2021/11/02 12:44:36;;;;;;;63.50;27.85;;;;;;;13.18;100.00;100504.09;1349761;106;21168;-94
2021/11/02 12:47:07;;;;;;;62.48;25.80;;;;;;;13.18;100.00;100504.89;1350144;105;21125;-96
2021/11/02 12:49:56;;;;;;;73.45;28.27;;;;;;;13.21;100.00;100505.41;1349496;105;21687;-96
2021/11/02 12:52:30;;;;;;;66.42;26.37;;;;;;;13.16;100.00;100492.17;1356248;105;21040;-96
2021/11/02 12:55:01;;;;;;;63.73;24.75;;;;;;;13.28;100.00;100508.11;1334427;106;21201;-96
2021/11/02 12:58:20;;;;;;;61.13;25.05;;;;;;;13.31;100.00;100506.19;1301585;109;21217;-96
2021/11/02 13:01:01;;;;;;;63.80;24.18;;;;;;;13.35;100.00;100509.97;1293349;106;21387;-93
2021/11/02 13:03:33;;;;;;;61.45;23.57;;;;;;;13.31;100.00;100507.55;1301291;108;21069;-96
2021/11/02 13:06:09;;;;;;;78.80;26.40;;;;;;;13.30;100.00;100507.84;1302202;106;21224;-96
2021/11/02 13:08:47;;;;;;;69.22;24.80;;;;;;;13.32;100.00;100506.99;1318319;108;21677;-95
2021/11/02 13:11:19;;;;;;;65.28;25.30;;;;;;;13.33;100.00;100509.98;1282683;111;21759;-96
2021/11/02 13:14:14;;;;;;;64.70;24.60;;;;;;;13.35;100.00;100509.97;1283331;111;21243;-96
2021/11/02 13:17:02;;;;;;;63.70;24.10;;;;;;;13.35;100.00;100505.08;1284373;110;21372;-96
2021/11/02 13:19:41;;;;;;;61.50;22.87;;;;;;;13.34;100.00;100508.89;1263209;111;21338;-92
2021/11/02 13:22:19;;;;;;;63.70;24.57;;;;;;;13.35;100.00;100510.49;1283346;108;21677;-93
2021/11/02 13:25:10;;;;;;;61.58;23.75;;;;;;;13.38;100.00;100509.93;1316847;107;21775;-94
2021/11/02 13:27:45;;;;;;;65.50;24.82;;;;;;;13.25;100.00;100505.13;1365701;100;21065;-95
2021/11/02 13:30:39;;;;;;;59.67;22.07;;;;;;;13.18;100.00;100507.59;1413052;100;21225;-94
2021/11/02 13:33:17;;;;;;;;;;;;;;;13.28;100.00;100510.01;1427408;100;21702;-96
2021/11/02 13:36:00;;;;;;;55.90;21.52;;;;;;;13.16;100.00;100511.12;1435492;100;20198;-96
2021/11/02 13:38:35;;;;;;;;;;;;;;;13.11;100.00;100508.43;1437682;98;21168;-95
2021/11/02 13:41:22;;;;;;;63.75;21.30;;;;;;;13.11;100.00;100498.96;1448553;97;20233;-96
2021/11/02 13:43:51;;;;;;;64.00;21.27;;;;;;;13.09;100.00;100505.77;1420983;100;21311;-96
2021/11/02 13:46:21;;;;;;;61.18;21.95;;;;;;;13.07;100.00;100502.52;1423022;99;21714;-96
2021/11/02 13:48:47;;;;;;;62.00;22.35;;;;;;;13.05;100.00;100502.78;1454100;98;21064;-95
2021/11/02 13:51:17;;;;;;;59.65;21.15;;;;;;;13.07;100.00;100506.03;1444205;97;21116;-96
2021/11/02 13:53:44;;;;;;;62.60;21.30;;;;;;;13.08;100.00;100502.77;1445247;97;21116;-95
2021/11/02 13:56:15;;;;;;;62.55;20.65;;;;;;;13.08;100.00;100502.23;1486813;95;21749;-93
2021/11/02 13:58:42;;;;;;;53.13;19.90;;;;;;;13.09;100.00;100503.06;1487852;96;21104;-94
2021/11/02 14:01:32;;;;;;;57.43;21.57;;;;;;;13.12;100.00;100501.95;1468303;97;21125;-95
2021/11/02 14:04:12;;;;;;;59.83;20.27;;;;;;;13.11;100.00;100503.56;1468202;97;21135;-96
2021/11/02 14:06:56;;;;;;;63.55;21.65;;;;;;;13.10;100.00;100510.08;1470131;97;21107;-96
2021/11/02 14:09:29;;;;;;;67.10;20.32;;;;;;;13.11;100.00;100507.63;1468814;96;21103;-95
2021/11/02 14:11:56;;;;;;;57.43;20.30;;;;;;;13.02;100.00;100490.36;1479488;97;21013;-95
2021/11/02 14:14:35;;;;;;;55.65;20.05;;;;;;;13.02;100.00;100490.36;1463122;95;21087;-94
2021/11/02 14:17:20;;;;;;;72.00;21.10;;;;;;;13.13;100.00;100506.81;1493158;95;21151;-91
2021/11/02 14:19:52;;;;;;;57.38;19.67;;;;;;;13.12;100.00;100503.30;1511875;90;21139;-92
2021/11/02 14:22:52;;;;;;;69.55;19.67;;;;;;;13.06;100.00;100497.66;1563522;91;22212;-89
2021/11/02 14:25:32;;;;;;;65.10;20.05;;;;;;;13.03;100.00;100506.33;1584913;90;21177;-89
2021/11/02 14:27:59;;;;;;;67.03;19.85;;;;;;;13.00;100.00;100505.53;1545232;91;21259;-89
2021/11/02 14:30:37;;;;;;;64.10;19.07;;;;;;;13.06;100.00;100512.54;1536353;92;21721;-88
2021/11/02 14:33:11;;;;;;;57.78;18.95;;;;;;;13.04;100.00;100509.84;1531509;92;21159;-89
2021/11/02 14:36:02;;;;;;;60.20;18.95;;;;;;;13.02;100.00;100510.10;1544399;91;21860;-90
2021/11/02 14:38:46;;;;;;;54.55;17.67;;;;;;;13.03;100.00;100508.20;1550679;91;21132;-90
2021/11/02 14:41:30;;;;;;;58.17;17.30;;;;;;;13.04;100.00;100512.55;1563995;90;22207;-91
2021/11/02 14:44:24;;;;;;;62.78;20.05;;;;;;;13.04;100.00;100509.84;1529895;92;21641;-91
2021/11/02 14:46:53;;;;;;;56.58;19.37;;;;;;;13.03;100.00;100509.04;1527615;92;21159;-91
2021/11/02 14:49:30;;;;;;;67.20;20.30;;;;;;;13.06;100.00;100513.05;1560221;91;21160;-91
2021/11/02 14:52:05;;;;;;;70.57;20.80;;;;;;;13.07;100.00;100512.80;1523821;94;21618;-92
2021/11/02 14:54:41;;;;;;;76.62;22.48;;;;;;;13.08;100.00;100516.30;1523874;94;21591;-94
2021/11/02 14:57:21;;;;;;;65.67;21.42;;;;;;;13.06;100.00;100517.11;1485586;95;21132;-92
2021/11/02 15:00:01;;;;;;;67.20;22.40;;;;;;;13.03;100.00;100514.45;1413425;99;21247;-92
2021/11/02 15:02:41;;;;;;;56.42;22.77;;;;;;;13.04;100.00;100519.31;1401400;100;21262;-90
2021/11/02 15:05:11;;;;;;;56.65;20.25;;;;;;;13.02;100.00;100519.58;1410159;99;21179;-91
2021/11/02 15:07:44;;;;;;;65.87;22.10;;;;;;;12.98;100.00;100523.93;1396027;99;21142;-91
2021/11/02 15:10:15;;;;;;;58.38;20.60;;;;;;;12.97;100.00;100527.73;1399127;101;21230;-89
2021/11/02 15:12:46;;;;;;;51.92;18.48;;;;;;;13.07;100.00;100525.52;1316752;106;21170;-91
2021/11/02 15:15:13;;;;;;;50.88;18.30;;;;;;;13.06;100.00;100529.29;1303216;108;21260;-92
2021/11/02 15:17:39;;;;;;;54.33;18.30;;;;;;;13.02;100.00;100531.75;1284493;110;21632;-90
2021/11/02 15:20:07;;;;;;;63.02;22.67;;;;;;;13.00;100.00;100538.00;1296257;108;21117;-92
2021/11/02 15:22:33;;;;;;;61.37;21.05;;;;;;;13.02;100.00;100537.16;1300876;110;21175;-92
2021/11/02 15:25:02;;;;;;;58.05;21.15;;;;;;;13.10;100.00;100537.13;1300290;110;21036;-91
2021/11/02 15:27:33;;;;;;;59.08;21.07;;;;;;;13.17;100.00;100536.27;1289951;110;21915;-92
2021/11/02 15:30:08;;;;;;;62.88;21.02;;;;;;;13.24;100.00;100538.70;1298969;108;21327;-91
2021/11/02 15:32:45;;;;;;;62.75;20.02;;;;;;;13.24;100.00;100540.86;1302529;108;21242;-92
2021/11/02 15:35:21;;;;;;;66.33;23.60;;;;;;;13.19;100.00;100540.33;1303113;108;21222;-93
2021/11/02 15:37:53;;;;;;;68.90;21.55;;;;;;;13.11;100.00;100540.09;1364345;102;21174;-91
2021/11/02 15:40:24;;;;;;;61.98;21.40;;;;;;;13.04;100.00;100540.41;1376297;102;21852;-93
2021/11/02 15:42:58;;;;;;;65.85;21.73;;;;;;;13.01;100.00;100549.08;1374036;104;21186;-93
2021/11/02 15:45:35;;;;;;;73.15;22.70;;;;;;;13.04;100.00;100550.42;1378646;101;21209;-93
2021/11/02 15:48:13;;;;;;;72.10;23.52;;;;;;;13.10;100.00;100547.95;1423066;100;21136;-92
2021/11/02 15:50:50;;;;;;;87.02;25.90;;;;;;;13.08;100.00;100554.18;1423962;100;21279;-94
2021/11/02 15:53:27;;;;;;;105.00;30.27;;;;;;;13.06;100.00;100554.47;1420238;99;21449;-94
2021/11/02 15:55:58;;;;;;;111.83;32.93;;;;;;;13.07;100.00;100557.98;1439030;98;21720;-91
2021/11/02 15:58:29;;;;;;;101.12;29.92;;;;;;;13.09;100.00;100563.94;1442284;98;21121;-90
2021/11/02 16:00:55;;;;;;;90.42;27.30;;;;;;;13.07;100.00;100564.20;1434082;99;21175;-89
2021/11/02 16:03:31;;;;;;;89.67;24.85;;;;;;;13.08;100.00;100567.70;1433621;99;21155;-89
2021/11/02 16:05:58;;;;;;;86.37;22.65;;;;;;;13.09;100.00;100567.44;1433156;100;21434;-89
2021/11/02 16:08:25;;;;;;;89.67;24.15;;;;;;;13.09;100.00;100567.99;1433368;98;21153;-89
2021/11/02 16:11:03;;;;;;;98.45;24.55;;;;;;;13.09;100.00;100571.50;1475214;97;21155;-90
2021/11/02 16:13:29;;;;;;;93.92;24.67;;;;;;;13.11;100.00;100568.50;1457308;97;21734;-88
2021/11/02 16:15:58;;;;;;;88.42;24.43;;;;;;;13.14;100.00;100568.75;1457700;98;21141;-91
2021/11/02 16:18:28;;;;;;;88.15;25.37;;;;;;;13.13;100.00;100572.55;1439308;98;22002;-90
2021/11/02 16:21:00;;;;;;;84.45;25.15;;;;;;;13.09;100.00;100575.56;1468709;97;21117;-87
2021/11/02 16:23:40;;;;;;;83.80;25.82;;;;;;;13.05;100.00;100567.72;1457566;97;21132;-88
2021/11/02 16:26:28;;;;;;;90.12;23.92;;;;;;;13.04;100.00;100576.92;1479502;96;21168;-88
2021/11/02 16:28:58;;;;;;;92.47;25.23;;;;;;;13.04;100.00;100576.92;1479530;97;21136;-88